Time;durP1;ratioP1;P1;durP2;ratioP2;P2;SDS_P1;SDS_P2;PMS_P1;PMS_P2;Temp;Humidity;BMP_temperature;BMP_pressure;BME280_temperature;BME280_humidity;BME280_pressure;Samples;Min_cycle;Max_cycle;Signal;HPM_P1;HPM_P2
2021/06/16 00:02:09;;;;;;;4.28;3.50;;;21.90;99.90;;;;;;5036135;28;20033;-93
2021/06/16 00:04:34;;;;;;;3.58;3.28;;;21.80;99.90;;;;;;5035359;28;20026;-92
2021/06/16 00:07:00;;;;;;;5.13;3.67;;;22.00;99.90;;;;;;5035650;28;20029;-92
2021/06/16 00:09:26;;;;;;;6.47;4.10;;;22.00;99.90;;;;;;5017716;28;20025;-92
2021/06/16 00:11:51;;;;;;;5.53;3.85;;;22.00;99.90;;;;;;5036003;28;20029;-92
2021/06/16 00:14:23;;;;;;;7.55;4.10;;;21.90;99.90;;;;;;5035747;28;20087;-93
2021/06/16 00:16:49;;;;;;;5.03;4.10;;;21.80;99.90;;;;;;5034660;28;20041;-92
2021/06/16 00:19:15;;;;;;;4.60;3.97;;;21.70;99.90;;;;;;5035669;28;20033;-93
2021/06/16 00:21:40;;;;;;;8.23;4.38;;;21.70;99.90;;;;;;5035465;28;20052;-92
2021/06/16 00:24:07;;;;;;;5.20;4.18;;;21.80;99.90;;;;;;5035155;28;20156;-93
2021/06/16 00:26:33;;;;;;;5.05;4.05;;;21.80;99.90;;;;;;5020388;28;20112;-92
2021/06/16 00:28:58;;;;;;;6.60;4.55;;;21.60;99.90;;;;;;5017890;28;20049;-92
2021/06/16 00:31:24;;;;;;;4.68;4.20;;;21.50;99.90;;;;;;5035017;28;20029;-93
2021/06/16 00:33:50;;;;;;;4.25;3.85;;;21.30;99.90;;;;;;5013858;28;20057;-92
2021/06/16 00:36:15;;;;;;;4.88;3.90;;;21.10;99.90;;;;;;5023411;28;20037;-93
2021/06/16 00:38:41;;;;;;;4.53;3.90;;;21.00;99.90;;;;;;5017631;28;20108;-92
2021/06/16 00:41:07;;;;;;;4.93;4.43;;;21.00;99.90;;;;;;5035303;28;20402;-92
2021/06/16 00:43:32;;;;;;;5.00;4.43;;;21.10;99.90;;;;;;5034463;28;20021;-92
2021/06/16 00:45:58;;;;;;;5.68;4.35;;;21.10;99.90;;;;;;5035396;28;20494;-92
2021/06/16 00:48:24;;;;;;;4.15;3.75;;;21.00;99.90;;;;;;5017401;28;20360;-93
2021/06/16 00:50:50;;;;;;;5.78;3.83;;;21.00;99.90;;;;;;5035201;28;20156;-93
2021/06/16 00:53:16;;;;;;;4.97;3.83;;;20.90;99.90;;;;;;5035770;28;20056;-93
2021/06/16 00:55:43;;;;;;;5.35;4.32;;;20.90;99.90;;;;;;5018053;28;20115;-93
2021/06/16 00:58:11;;;;;;;4.70;4.25;;;20.80;99.90;;;;;;5034582;28;20044;-92
2021/06/16 01:00:51;;;;;;;4.93;4.43;;;20.80;99.90;;;;;;5035060;28;20021;-92
2021/06/16 01:03:28;;;;;;;5.95;4.65;;;20.80;99.90;;;;;;5035418;28;20025;-93
2021/06/16 01:06:20;;;;;;;5.95;4.82;;;20.70;99.90;;;;;;5002657;28;20029;-92
2021/06/16 01:09:14;;;;;;;6.45;4.55;;;20.80;99.90;;;;;;5019284;28;20029;-93
2021/06/16 01:12:17;;;;;;;4.57;4.20;;;20.70;99.90;;;;;;5028287;28;20120;-92
2021/06/16 01:14:51;;;;;;;5.07;4.57;;;20.60;99.90;;;;;;5034450;28;20520;-92
2021/06/16 01:17:31;;;;;;;6.93;4.70;;;20.60;99.90;;;;;;5034778;28;20073;-92
2021/06/16 01:19:57;;;;;;;7.30;4.35;;;20.50;99.90;;;;;;5015739;28;20021;-92
2021/06/16 01:22:58;;;;;;;5.18;4.72;;;20.50;99.90;;;;;;5016481;28;20045;-92
2021/06/16 01:25:44;;;;;;;5.57;4.68;;;20.50;99.90;;;;;;4992749;28;20478;-92
2021/06/16 01:28:11;;;;;;;4.70;4.30;;;20.60;99.90;;;;;;4993166;28;20038;-93
2021/06/16 01:30:38;;;;;;;6.05;4.80;;;20.60;99.90;;;;;;4992972;28;20051;-92
2021/06/16 01:33:06;;;;;;;5.55;4.15;;;20.60;99.90;;;;;;4975712;28;20034;-93
2021/06/16 01:35:32;;;;;;;8.13;4.65;;;20.60;99.90;;;;;;4993237;28;20058;-92
2021/06/16 01:38:01;;;;;;;5.10;4.68;;;20.40;99.90;;;;;;4993141;28;20042;-93
2021/06/16 01:40:28;;;;;;;4.88;4.45;;;20.40;99.90;;;;;;4976333;28;20026;-93
2021/06/16 01:42:56;;;;;;;5.57;4.70;;;20.30;99.90;;;;;;4991776;28;20034;-92
2021/06/16 01:45:23;;;;;;;4.97;4.43;;;20.40;99.90;;;;;;4976661;28;20034;-93
2021/06/16 01:47:50;;;;;;;5.53;4.47;;;20.30;99.90;;;;;;4976531;28;20089;-93
2021/06/16 01:50:19;;;;;;;5.32;4.60;;;20.20;99.90;;;;;;4993332;28;20097;-93
2021/06/16 01:52:48;;;;;;;6.10;4.68;;;20.30;99.90;;;;;;4993447;28;20030;-93
2021/06/16 01:55:15;;;;;;;5.45;4.40;;;20.20;99.90;;;;;;4975924;28;20049;-93
2021/06/16 01:57:42;;;;;;;4.97;4.57;;;20.10;99.90;;;;;;4991980;28;20041;-93
2021/06/16 02:00:08;;;;;;;5.35;4.30;;;20.10;99.90;;;;;;4976048;28;20030;-93
2021/06/16 02:02:34;;;;;;;5.47;4.68;;;20.20;99.90;;;;;;5022651;28;20041;-94
2021/06/16 02:05:00;;;;;;;4.82;4.15;;;20.30;99.90;;;;;;5034182;28;20540;-93
2021/06/16 02:07:29;;;;;;;5.93;4.20;;;20.20;99.90;;;;;;5033947;28;20116;-93
2021/06/16 02:09:57;;;;;;;5.93;4.35;;;20.00;99.90;;;;;;5033924;28;20085;-93
2021/06/16 02:12:23;;;;;;;7.57;4.57;;;20.00;99.90;;;;;;5033902;28;20478;-93
2021/06/16 02:14:53;;;;;;;8.02;4.68;;;20.10;99.90;;;;;;5033961;28;20033;-93
2021/06/16 02:17:20;;;;;;;4.80;4.30;;;20.10;99.90;;;;;;5016483;28;20037;-92
2021/06/16 02:19:47;;;;;;;6.75;4.40;;;20.00;99.90;;;;;;5033935;28;20542;-93
2021/06/16 02:22:13;;;;;;;8.10;4.75;;;20.00;99.90;;;;;;5033171;28;20053;-93
2021/06/16 02:24:40;;;;;;;5.25;4.53;;;20.00;99.90;;;;;;5011163;28;20030;-93
2021/06/16 02:27:06;;;;;;;7.32;4.97;;;20.00;99.90;;;;;;5015916;28;20031;-93
2021/06/16 02:29:32;;;;;;;5.22;4.72;;;20.10;99.90;;;;;;5015933;28;20067;-93
2021/06/16 02:31:59;;;;;;;5.38;4.75;;;20.00;99.90;;;;;;5016735;28;20083;-93
2021/06/16 02:34:26;;;;;;;5.43;4.82;;;19.90;99.90;;;;;;5033983;28;20078;-93
2021/06/16 02:36:56;;;;;;;6.53;4.90;;;19.90;99.90;;;;;;5011028;28;20069;-93
2021/06/16 02:39:25;;;;;;;6.85;4.45;;;19.90;99.90;;;;;;5011188;28;20022;-93
2021/06/16 02:41:52;;;;;;;6.32;5.03;;;19.80;99.90;;;;;;5033264;28;20021;-94
2021/06/16 02:44:18;;;;;;;6.28;4.90;;;19.80;99.90;;;;;;5033763;28;20033;-93
2021/06/16 02:46:51;;;;;;;5.95;5.10;;;19.80;99.90;;;;;;5033640;28;20032;-94
2021/06/16 02:49:27;;;;;;;5.90;4.93;;;19.80;99.90;;;;;;5011268;28;20390;-94
2021/06/16 02:51:53;;;;;;;5.82;4.45;;;19.80;99.90;;;;;;5033546;28;20039;-94
2021/06/16 02:54:20;;;;;;;6.10;5.00;;;19.80;99.90;;;;;;5032362;28;20116;-94
2021/06/16 02:56:46;;;;;;;5.40;4.90;;;19.80;99.90;;;;;;5016823;28;20043;-93
2021/06/16 02:59:15;;;;;;;6.13;5.13;;;19.80;99.90;;;;;;5034113;28;20044;-94
2021/06/16 03:01:43;;;;;;;7.25;5.18;;;19.80;99.90;;;;;;5033358;28;20112;-93
2021/06/16 03:04:10;;;;;;;6.35;5.15;;;19.80;99.90;;;;;;5033102;28;20025;-93
2021/06/16 03:06:36;;;;;;;6.55;4.95;;;19.80;99.90;;;;;;5032560;28;20029;-93
2021/06/16 03:09:03;;;;;;;6.18;5.50;;;19.60;99.90;;;;;;5032985;28;20111;-94
2021/06/16 03:11:31;;;;;;;8.43;5.13;;;19.60;99.90;;;;;;5033035;28;20034;-94
2021/06/16 03:13:59;;;;;;;8.50;5.30;;;19.50;99.90;;;;;;5033131;28;20026;-93
2021/06/16 03:16:26;;;;;;;6.05;5.22;;;19.50;99.90;;;;;;5033549;28;20132;-94
2021/06/16 03:18:52;;;;;;;6.53;5.00;;;19.60;99.90;;;;;;5033212;28;20053;-94
2021/06/16 03:21:18;;;;;;;7.47;5.30;;;19.40;99.90;;;;;;5032805;28;20083;-93
2021/06/16 03:23:47;;;;;;;6.13;5.60;;;19.50;99.90;;;;;;5014790;28;20057;-94
2021/06/16 03:26:14;;;;;;;6.65;5.68;;;19.50;99.90;;;;;;5033751;28;20093;-94
2021/06/16 03:28:42;;;;;;;7.40;5.40;;;19.50;99.90;;;;;;5032786;28;20515;-94
2021/06/16 03:31:08;;;;;;;5.95;5.25;;;19.50;99.90;;;;;;5032659;28;20034;-94
2021/06/16 03:33:34;;;;;;;6.22;4.95;;;19.40;99.90;;;;;;5033073;28;20034;-94
2021/06/16 03:36:01;;;;;;;6.28;4.93;;;19.40;99.90;;;;;;5032671;28;20533;-93
2021/06/16 03:38:27;;;;;;;6.07;5.35;;;19.50;99.90;;;;;;5015280;28;20033;-94
2021/06/16 03:40:54;;;;;;;6.32;5.75;;;19.50;99.90;;;;;;5033023;28;20097;-94
2021/06/16 03:43:21;;;;;;;5.68;5.00;;;19.60;99.90;;;;;;5033150;28;20113;-94
2021/06/16 03:45:47;;;;;;;7.30;5.35;;;19.60;99.90;;;;;;5015122;28;20025;-93
2021/06/16 03:48:18;;;;;;;5.85;5.00;;;19.60;99.90;;;;;;5011930;28;20026;-94
2021/06/16 03:50:44;;;;;;;6.20;5.25;;;19.60;99.90;;;;;;5031147;28;22193;-94
2021/06/16 03:53:11;;;;;;;7.55;5.47;;;19.50;99.90;;;;;;5032988;28;20458;-94
2021/06/16 03:55:42;;;;;;;6.00;5.45;;;19.40;99.90;;;;;;5032143;28;20033;-94
2021/06/16 03:58:09;;;;;;;7.43;5.57;;;19.40;99.90;;;;;;5032873;28;20561;-93
2021/06/16 04:00:36;;;;;;;7.45;5.45;;;19.40;99.90;;;;;;5015292;28;20389;-94
2021/06/16 04:03:04;;;;;;;6.47;5.43;;;19.50;99.90;;;;;;5015498;28;20025;-94
2021/06/16 04:05:30;;;;;;;7.05;5.15;;;19.50;99.90;;;;;;5032562;28;20072;-94
2021/06/16 04:07:56;;;;;;;5.95;5.15;;;19.60;99.90;;;;;;5018465;28;20041;-94
2021/06/16 04:10:23;;;;;;;6.28;5.65;;;19.60;99.90;;;;;;5036139;28;20030;-94
2021/06/16 04:12:49;;;;;;;7.18;5.47;;;19.50;99.90;;;;;;5014262;28;20033;-94
2021/06/16 04:15:21;;;;;;;6.40;5.75;;;19.60;99.90;;;;;;5018902;28;20021;-94
2021/06/16 04:17:46;;;;;;;7.22;4.90;;;19.50;99.90;;;;;;5020498;28;20025;-93
2021/06/16 04:20:14;;;;;;;6.03;5.40;;;19.60;99.90;;;;;;5036634;28;20063;-93
2021/06/16 04:22:40;;;;;;;6.10;5.50;;;19.60;99.90;;;;;;5035398;28;20103;-94
2021/06/16 04:25:08;;;;;;;8.35;5.30;;;19.70;99.90;;;;;;5018260;28;20033;-94
2021/06/16 04:27:34;;;;;;;6.13;4.75;;;19.60;99.90;;;;;;5036349;28;20187;-94
2021/06/16 04:30:00;;;;;;;7.40;5.22;;;19.70;99.90;;;;;;5018763;28;20116;-93
2021/06/16 04:32:26;;;;;;;7.55;5.35;;;19.80;99.90;;;;;;5036027;28;20053;-94
2021/06/16 04:34:52;;;;;;;6.53;5.45;;;19.70;99.90;;;;;;5018467;28;20067;-94
2021/06/16 04:37:17;;;;;;;6.10;5.50;;;19.70;99.90;;;;;;5035541;28;20053;-93
2021/06/16 04:39:44;;;;;;;6.18;5.38;;;19.60;99.90;;;;;;5018196;28;20053;-94
2021/06/16 04:42:10;;;;;;;6.32;5.72;;;19.70;99.90;;;;;;5034151;28;20485;-94
2021/06/16 04:44:35;;;;;;;7.22;6.00;;;19.70;99.90;;;;;;5018349;28;20030;-93
2021/06/16 04:47:01;;;;;;;6.05;5.38;;;19.70;99.90;;;;;;5018316;28;20632;-94
2021/06/16 04:49:28;;;;;;;6.97;5.20;;;19.80;99.90;;;;;;5035811;28;20455;-94
2021/06/16 04:51:54;;;;;;;5.38;4.85;;;19.80;99.90;;;;;;5035692;28;20029;-93
2021/06/16 04:54:20;;;;;;;6.60;5.45;;;19.80;99.90;;;;;;5036572;28;20021;-94
2021/06/16 04:56:45;;;;;;;6.35;5.60;;;19.90;99.90;;;;;;5017617;28;20046;-94
2021/06/16 04:59:11;;;;;;;7.22;5.18;;;19.90;99.90;;;;;;5035862;28;20032;-94
2021/06/16 05:01:38;;;;;;;6.55;5.25;;;19.90;99.90;;;;;;5017745;28;20122;-94
2021/06/16 05:04:05;;;;;;;8.00;5.30;;;20.00;99.90;;;;;;5034585;28;20490;-94
2021/06/16 05:06:30;;;;;;;7.97;5.45;;;20.00;99.90;;;;;;5035319;28;20025;-94
2021/06/16 05:08:57;;;;;;;7.63;4.85;;;20.10;99.90;;;;;;5034957;28;20440;-94
2021/06/16 05:11:22;;;;;;;6.07;5.47;;;20.10;99.90;;;;;;5034969;28;20026;-94
2021/06/16 05:13:48;;;;;;;6.32;4.90;;;20.20;99.90;;;;;;5036665;28;20036;-96
2021/06/16 05:16:14;;;;;;;17.48;6.78;;;20.20;99.90;;;;;;5035659;28;20045;-95
2021/06/16 05:18:45;;;;;;;9.27;5.38;;;20.30;99.90;;;;;;5034201;28;20025;-95
2021/06/16 05:21:12;;;;;;;7.50;5.85;;;20.50;99.90;;;;;;5035393;28;20437;-95
2021/06/16 05:23:37;;;;;;;12.55;5.70;;;20.50;99.90;;;;;;5028123;28;20049;-95
2021/06/16 05:26:04;;;;;;;7.60;5.43;;;20.40;99.90;;;;;;5035519;28;20080;-95
2021/06/16 05:28:29;;;;;;;8.23;6.00;;;20.50;99.90;;;;;;5035048;28;20021;-95
2021/06/16 05:30:55;;;;;;;9.77;5.43;;;20.60;99.90;;;;;;5034814;28;20059;-96
2021/06/16 05:33:21;;;;;;;5.97;5.38;;;20.70;99.90;;;;;;5017245;28;20029;-96
2021/06/16 05:35:47;;;;;;;7.78;5.90;;;20.70;99.90;;;;;;5017567;28;20041;-95
2021/06/16 05:38:12;;;;;;;8.45;5.93;;;20.80;99.90;;;;;;5035224;28;20493;-96
2021/06/16 05:40:38;;;;;;;10.68;5.13;;;21.00;99.90;;;;;;5002474;28;20030;-95
2021/06/16 05:43:04;;;;;;;11.32;5.78;;;21.00;99.90;;;;;;5029975;28;20034;-95
2021/06/16 05:45:29;;;;;;;6.35;5.68;;;21.00;99.90;;;;;;5012592;28;20101;-95
2021/06/16 05:47:55;;;;;;;7.15;5.60;;;21.00;99.90;;;;;;5034605;28;20025;-96
2021/06/16 05:50:21;;;;;;;7.47;5.60;;;21.10;99.90;;;;;;5017483;28;20022;-95
2021/06/16 05:52:47;;;;;;;5.72;5.13;;;21.10;99.90;;;;;;5035026;28;20112;-94
2021/06/16 05:55:14;;;;;;;5.40;4.82;;;21.10;99.90;;;;;;5022165;28;20060;-94
2021/06/16 05:57:40;;;;;;;10.55;5.90;;;21.10;99.90;;;;;;5034351;28;20083;-94
2021/06/16 06:00:07;;;;;;;7.63;5.90;;;21.20;99.90;;;;;;5035528;28;20025;-93
2021/06/16 06:02:33;;;;;;;7.72;5.25;;;21.30;99.90;;;;;;5032892;28;20544;-94
2021/06/16 06:04:59;;;;;;;10.40;5.93;;;21.40;99.90;;;;;;5034397;28;20030;-96
2021/06/16 06:07:24;;;;;;;8.60;5.70;;;21.50;99.90;;;;;;5028838;28;20040;-96
2021/06/16 06:09:50;;;;;;;6.43;5.80;;;21.60;99.90;;;;;;5017190;28;20056;-96
2021/06/16 06:12:16;;;;;;;8.98;6.38;;;21.70;99.90;;;;;;5034727;28;20106;-96
2021/06/16 06:14:42;;;;;;;9.05;6.25;;;21.80;99.90;;;;;;5035131;28;20025;-96
2021/06/16 06:17:07;;;;;;;7.30;5.72;;;21.90;99.90;;;;;;5034723;28;20087;-96
2021/06/16 06:19:34;;;;;;;10.00;6.15;;;21.90;99.90;;;;;;5036159;28;20030;-96
2021/06/16 06:21:59;;;;;;;10.55;5.95;;;22.00;99.90;;;;;;5008482;28;20033;-96
2021/06/16 06:24:25;;;;;;;8.82;6.03;;;22.10;99.90;;;;;;5023725;28;20108;-96
2021/06/16 06:26:51;;;;;;;8.43;5.75;;;22.10;99.90;;;;;;5034764;28;20025;-96
2021/06/16 06:29:16;;;;;;;8.32;5.72;;;22.20;99.90;;;;;;5017449;28;20056;-96
2021/06/16 06:31:42;;;;;;;8.57;5.95;;;22.40;99.90;;;;;;5016687;28;20068;-96
2021/06/16 06:34:08;;;;;;;7.70;6.00;;;22.40;99.90;;;;;;5034629;28;20041;-96
2021/06/16 06:36:33;;;;;;;7.13;5.50;;;22.50;99.90;;;;;;5016382;28;20030;-96
2021/06/16 06:38:59;;;;;;;7.93;5.38;;;22.60;99.90;;;;;;5016328;28;20087;-96
2021/06/16 06:41:26;;;;;;;7.07;5.80;;;22.60;99.90;;;;;;5016726;28;20375;-96
2021/06/16 06:43:51;;;;;;;8.68;5.45;;;22.70;99.90;;;;;;5028178;28;20075;-96
2021/06/16 06:46:17;;;;;;;9.18;5.75;;;22.80;99.90;;;;;;5033646;28;20029;-96
2021/06/16 06:48:42;;;;;;;10.43;5.90;;;22.90;99.90;;;;;;5011879;28;20052;-96
2021/06/16 06:51:09;;;;;;;9.38;6.18;;;23.00;99.90;;;;;;5016993;28;20025;-96
2021/06/16 06:53:35;;;;;;;10.80;7.88;;;23.00;99.90;;;;;;5034063;28;20025;-96
2021/06/16 06:56:01;;;;;;;7.53;5.70;;;23.10;99.90;;;;;;5034322;28;20052;-96
2021/06/16 06:58:28;;;;;;;8.25;5.70;;;23.20;99.90;;;;;;5033557;28;20037;-96
2021/06/16 07:00:54;;;;;;;5.70;5.20;;;23.40;99.90;;;;;;5033583;28;20018;-96
2021/06/16 07:03:20;;;;;;;9.60;5.03;;;23.40;99.90;;;;;;5034584;28;20040;-96
2021/06/16 07:05:45;;;;;;;8.27;5.47;;;23.50;99.90;;;;;;5033712;28;20018;-96
2021/06/16 07:08:11;;;;;;;7.97;5.45;;;23.60;99.90;;;;;;5034573;28;20029;-96
2021/06/16 07:10:36;;;;;;;7.68;5.43;;;23.70;99.90;;;;;;5033757;28;20029;-96
2021/06/16 07:13:03;;;;;;;8.32;5.13;;;23.80;99.90;;;;;;5033570;28;20041;-96
2021/06/16 07:15:30;;;;;;;8.88;5.45;;;23.80;99.90;;;;;;5032876;28;20021;-96
2021/06/16 07:17:56;;;;;;;7.57;5.10;;;23.90;99.90;;;;;;5033923;28;20040;-96
2021/06/16 07:20:21;;;;;;;6.28;5.00;;;23.90;99.90;;;;;;5033442;28;20052;-96
2021/06/16 07:22:48;;;;;;;7.55;5.78;;;23.90;99.90;;;;;;5034071;28;20509;-96
2021/06/16 07:25:14;;;;;;;5.85;4.93;;;24.10;99.90;;;;;;5033269;28;20022;-96
2021/06/16 07:27:42;;;;;;;5.75;4.30;;;24.20;99.90;;;;;;5033063;28;20059;-96
2021/06/16 07:30:08;;;;;;;6.07;5.05;;;24.30;99.90;;;;;;5033404;28;20116;-96
2021/06/16 07:32:35;;;;;;;7.43;4.95;;;24.50;99.90;;;;;;5015803;28;20029;-96
2021/06/16 07:35:01;;;;;;;5.40;4.85;;;24.50;99.90;;;;;;5033933;28;20529;-96
2021/06/16 07:37:27;;;;;;;5.03;4.50;;;24.70;99.90;;;;;;5033136;28;20048;-96
2021/06/16 07:39:54;;;;;;;6.13;4.72;;;24.70;99.90;;;;;;5015797;28;20027;-96
2021/06/16 07:42:20;;;;;;;6.63;4.82;;;24.80;99.90;;;;;;5036115;28;20029;-96
2021/06/16 07:44:46;;;;;;;6.22;4.53;;;24.80;99.90;;;;;;5019733;28;20021;-96
2021/06/16 07:47:12;;;;;;;7.55;5.18;;;25.00;99.90;;;;;;5019536;28;20048;-96
2021/06/16 07:49:37;;;;;;;11.38;4.53;;;25.10;99.90;;;;;;5036698;28;20026;-96
2021/06/16 07:52:04;;;;;;;5.28;4.47;;;25.20;99.90;;;;;;5036930;28;20037;-96
2021/06/16 07:54:30;;;;;;;7.03;4.80;;;25.30;99.90;;;;;;5036727;28;20025;-96
2021/06/16 07:56:55;;;;;;;5.90;5.10;;;25.40;99.90;;;;;;5036933;28;20045;-96
2021/06/16 07:59:21;;;;;;;6.97;4.65;;;25.50;99.90;;;;;;5036491;28;20381;-96
2021/06/16 08:01:48;;;;;;;5.10;4.60;;;25.60;99.90;;;;;;5036945;28;20025;-96
2021/06/16 08:04:14;;;;;;;7.68;4.57;;;25.60;99.90;;;;;;5036303;28;20026;-96
2021/06/16 08:06:40;;;;;;;6.78;4.70;;;25.70;99.90;;;;;;5036268;28;20021;-96
2021/06/16 08:09:05;;;;;;;6.80;4.80;;;25.80;99.90;;;;;;5036906;28;20048;-96
2021/06/16 08:11:31;;;;;;;7.82;4.63;;;25.80;99.90;;;;;;5019105;28;20029;-96
2021/06/16 08:13:57;;;;;;;6.55;4.60;;;25.90;99.90;;;;;;5018856;28;20022;-96
2021/06/16 08:16:23;;;;;;;5.38;4.80;;;26.00;99.90;;;;;;5018298;28;20490;-96
2021/06/16 08:18:50;;;;;;;7.25;5.20;;;26.20;99.90;;;;;;5019250;28;20071;-95
2021/06/16 08:21:16;;;;;;;5.47;4.60;;;26.30;99.90;;;;;;5036199;28;20033;-96
2021/06/16 08:23:44;;;;;;;4.93;4.43;;;26.40;99.90;;;;;;5035728;28;20068;-96
2021/06/16 08:26:10;;;;;;;6.50;4.15;;;26.50;99.90;;;;;;5018912;28;20025;-95
2021/06/16 08:28:36;;;;;;;6.00;4.80;;;26.60;99.90;;;;;;5008136;28;20450;-95
2021/06/16 08:31:02;;;;;;;6.55;4.80;;;26.70;99.90;;;;;;5029924;28;20539;-96
2021/06/16 08:33:28;;;;;;;5.63;4.57;;;26.70;99.90;;;;;;5036016;28;20124;-95
2021/06/16 08:35:53;;;;;;;5.15;4.65;;;26.70;99.90;;;;;;5036007;28;20059;-95
2021/06/16 08:38:19;;;;;;;6.18;4.80;;;26.80;99.90;;;;;;5018628;28;20389;-96
2021/06/16 08:40:45;;;;;;;6.88;4.75;;;26.90;99.90;;;;;;5018789;28;20033;-93
2021/06/16 08:43:13;;;;;;;6.40;4.88;;;26.90;99.90;;;;;;5035615;28;20037;-94
2021/06/16 08:45:40;;;;;;;5.35;4.85;;;27.00;99.90;;;;;;5035558;28;20090;-93
2021/06/16 08:48:07;;;;;;;7.93;4.97;;;27.10;99.90;;;;;;5035851;28;20033;-93
2021/06/16 08:50:33;;;;;;;6.15;4.68;;;27.20;99.90;;;;;;5036058;28;20025;-96
2021/06/16 08:52:58;;;;;;;8.43;5.30;;;27.30;99.90;;;;;;5036378;28;20116;-95
2021/06/16 08:55:24;;;;;;;7.63;5.10;;;27.40;99.90;;;;;;5034920;28;20056;-95
2021/06/16 08:57:50;;;;;;;5.72;5.13;;;27.40;99.90;;;;;;5013167;28;20035;-95
2021/06/16 09:00:19;;;;;;;5.57;5.07;;;27.50;99.90;;;;;;5035099;28;20029;-95
2021/06/16 09:02:45;;;;;;;5.60;5.10;;;27.60;99.90;;;;;;5035979;28;20494;-95
2021/06/16 09:05:12;;;;;;;11.43;6.15;;;27.70;99.90;;;;;;5035818;28;20026;-95
2021/06/16 09:07:40;;;;;;;6.57;4.72;;;27.70;99.90;;;;;;5018352;28;20033;-95
2021/06/16 09:10:19;;;;;;;7.78;5.10;;;27.70;99.90;;;;;;5035072;28;20087;-95
2021/06/16 09:12:59;;;;;;;7.80;5.13;;;27.80;99.90;;;;;;5034635;28;20021;-95
2021/06/16 09:15:27;;;;;;;8.52;5.13;;;27.80;99.90;;;;;;5034603;28;20536;-95
2021/06/16 09:18:00;;;;;;;6.75;5.07;;;28.00;99.90;;;;;;5035369;28;20040;-95
2021/06/16 09:20:27;;;;;;;6.35;4.80;;;28.20;99.90;;;;;;5034966;28;20075;-95
2021/06/16 09:23:19;;;;;;;6.05;4.57;;;28.20;99.90;;;;;;5035374;28;20085;-95
2021/06/16 09:26:03;;;;;;;8.13;5.00;;;28.10;99.90;;;;;;5034820;28;20478;-94
2021/06/16 09:28:36;;;;;;;6.53;4.82;;;28.20;99.90;;;;;;5035412;28;20437;-94
2021/06/16 09:31:02;;;;;;;9.57;5.18;;;28.20;99.90;;;;;;5035103;28;20079;-94
2021/06/16 09:33:28;;;;;;;4.75;4.32;;;28.30;99.90;;;;;;5033266;28;20022;-95
2021/06/16 09:35:54;;;;;;;6.88;4.65;;;28.50;99.90;;;;;;5034528;28;20045;-95
2021/06/16 09:38:28;;;;;;;6.95;4.82;;;28.60;99.90;;;;;;5017528;28;20116;-93
2021/06/16 09:40:54;;;;;;;7.05;4.97;;;28.70;99.90;;;;;;5017057;28;20434;-94
2021/06/16 09:43:22;;;;;;;7.45;5.15;;;28.50;99.90;;;;;;5034769;28;20414;-95
2021/06/16 09:46:02;;;;;;;5.18;4.43;;;28.70;99.90;;;;;;5034260;28;20021;-95
2021/06/16 09:48:34;;;;;;;5.88;4.63;;;28.80;99.90;;;;;;5034206;28;20029;-95
2021/06/16 09:51:25;;;;;;;5.13;4.63;;;28.90;99.90;;;;;;5034287;28;20041;-94
2021/06/16 09:53:59;;;;;;;5.43;4.60;;;29.00;99.90;;;;;;4958229;28;20035;-95
2021/06/16 09:56:26;;;;;;;4.40;4.00;;;28.90;99.90;;;;;;4973795;28;20077;-94
2021/06/16 09:58:53;;;;;;;4.85;4.00;;;28.70;99.90;;;;;;4960830;28;20031;-95
2021/06/16 10:01:19;;;;;;;8.50;4.47;;;28.80;99.90;;;;;;4973271;28;20063;-95
2021/06/16 10:03:45;;;;;;;4.70;4.22;;;28.90;99.90;;;;;;4973235;28;20023;-94
2021/06/16 10:06:11;;;;;;;4.50;4.03;;;28.90;99.90;;;;;;4973039;28;20454;-94
2021/06/16 10:08:39;;;;;;;4.60;4.20;;;29.00;99.90;;;;;;4972561;28;20479;-94
2021/06/16 10:11:07;;;;;;;4.72;3.97;;;29.20;99.90;;;;;;4973610;28;20395;-94
2021/06/16 10:13:33;;;;;;;4.78;4.15;;;29.20;99.90;;;;;;4972704;28;20053;-94
2021/06/16 10:16:00;;;;;;;4.70;4.13;;;29.10;99.90;;;;;;4956765;28;20496;-94
2021/06/16 10:18:27;;;;;;;4.72;4.32;;;29.10;99.90;;;;;;4972916;28;20417;-94
2021/06/16 10:20:55;;;;;;;7.43;4.68;;;29.10;99.90;;;;;;4972976;28;20101;-94
2021/06/16 10:23:21;;;;;;;4.63;4.10;;;29.40;99.90;;;;;;4972577;28;20051;-94
2021/06/16 10:25:48;;;;;;;5.30;4.35;;;29.50;99.90;;;;;;4956722;28;20023;-94
2021/06/16 10:28:21;;;;;;;4.28;3.90;;;29.60;99.90;;;;;;4972730;28;20027;-94
2021/06/16 10:30:55;;;;;;;4.80;3.63;;;29.60;99.90;;;;;;5002280;28;20513;-94
2021/06/16 10:33:41;;;;;;;4.88;4.18;;;29.80;99.90;;;;;;5032916;28;20017;-91
2021/06/16 10:36:10;;;;;;;5.00;4.05;;;30.10;99.90;;;;;;5015904;28;20038;-92
2021/06/16 10:38:36;;;;;;;4.82;4.30;;;30.10;99.90;;;;;;5033071;28;20104;-92
2021/06/16 10:41:02;;;;;;;4.95;3.83;;;29.70;99.90;;;;;;5033843;28;20067;-92
2021/06/16 10:43:33;;;;;;;4.50;4.10;;;29.80;99.90;;;;;;5032747;28;20065;-92
2021/06/16 10:46:19;;;;;;;5.10;3.90;;;30.00;99.90;;;;;;5032917;28;20038;-92
2021/06/16 10:49:00;;;;;;;5.15;3.90;;;30.20;99.90;;;;;;5032636;28;20021;-92
2021/06/16 10:51:25;;;;;;;5.03;4.47;;;30.40;99.90;;;;;;5032644;28;20026;-92
2021/06/16 10:54:13;;;;;;;4.68;4.28;;;30.40;99.90;;;;;;5033094;28;20026;-91
2021/06/16 10:56:44;;;;;;;4.45;4.05;;;30.50;99.90;;;;;;5032876;28;20045;-91
2021/06/16 10:59:09;;;;;;;5.07;3.75;;;30.30;99.90;;;;;;5033713;28;20013;-91
2021/06/16 11:01:49;;;;;;;4.40;4.00;;;30.40;99.90;;;;;;5032375;28;20041;-91
2021/06/16 11:04:28;;;;;;;5.70;4.20;;;30.40;99.90;;;;;;5032863;28;20029;-92
2021/06/16 11:06:55;;;;;;;5.93;4.32;;;30.60;99.90;;;;;;5032317;28;20033;-92
2021/06/16 11:09:50;;;;;;;4.70;4.30;;;30.60;99.90;;;;;;5032432;28;20032;-92
2021/06/16 11:12:17;;;;;;;5.70;5.10;;;30.70;99.90;;;;;;5032937;28;20040;-91
2021/06/16 11:14:46;;;;;;;5.43;4.88;;;30.70;99.90;;;;;;5032570;28;20014;-92
2021/06/16 11:17:32;;;;;;;6.07;5.47;;;30.60;99.90;;;;;;5032246;28;20033;-91
2021/06/16 11:20:01;;;;;;;5.50;5.00;;;30.60;99.90;;;;;;5030512;28;20033;-91
2021/06/16 11:22:27;;;;;;;6.85;5.78;;;30.70;99.90;;;;;;5031725;28;20108;-91
2021/06/16 11:25:06;;;;;;;7.65;5.75;;;31.00;99.90;;;;;;5014424;28;20121;-91
2021/06/16 11:27:53;;;;;;;7.07;6.35;;;30.80;99.90;;;;;;5032365;28;20045;-91
2021/06/16 11:30:40;;;;;;;7.28;6.57;;;30.90;99.90;;;;;;5032347;28;20401;-91
2021/06/16 11:33:12;;;;;;;7.32;6.65;;;30.90;99.90;;;;;;5001437;28;20029;-91
2021/06/16 11:35:55;;;;;;;8.10;5.95;;;30.70;99.90;;;;;;5032134;28;20117;-92
2021/06/16 11:38:20;;;;;;;7.53;6.55;;;31.00;99.90;;;;;;5029045;28;20035;-90
2021/06/16 11:41:18;;;;;;;8.32;6.53;;;30.80;99.90;;;;;;5032958;28;20553;-91
2021/06/16 11:43:49;;;;;;;6.50;6.00;;;31.10;99.90;;;;;;5031933;28;20163;-91
2021/06/16 11:46:31;;;;;;;6.47;5.82;;;31.40;99.90;;;;;;5032019;28;20457;-91
2021/06/16 11:49:08;;;;;;;7.72;5.88;;;31.60;99.90;;;;;;5031957;28;20044;-91
2021/06/16 11:51:40;;;;;;;6.13;5.70;;;31.50;99.90;;;;;;5031676;28;20517;-91
2021/06/16 11:54:19;;;;;;;6.60;6.00;;;31.40;99.90;;;;;;5032256;28;20022;-91
2021/06/16 11:57:07;;;;;;;6.85;6.20;;;31.60;99.90;;;;;;5032264;28;20034;-91
2021/06/16 11:59:43;;;;;;;7.95;5.68;;;31.90;99.90;;;;;;5030550;28;20487;-91
2021/06/16 12:02:23;;;;;;;6.25;5.75;;;32.00;99.90;;;;;;5031645;28;20030;-91
2021/06/16 12:05:05;;;;;;;5.53;4.88;;;32.10;99.90;;;;;;5031415;28;20025;-91
2021/06/16 12:07:32;;;;;;;6.40;5.50;;;32.90;99.90;;;;;;5014400;28;20124;-91
2021/06/16 12:10:04;;;;;;;6.50;5.80;;;33.20;99.90;;;;;;5014106;28;20121;-91
2021/06/16 12:12:54;;;;;;;5.65;4.97;;;33.30;99.90;;;;;;5014496;28;20036;-91
2021/06/16 12:15:25;;;;;;;6.18;5.68;;;34.40;99.90;;;;;;5032024;28;20072;-90
2021/06/16 12:18:04;;;;;;;6.63;5.57;;;35.90;99.90;;;;;;5015469;28;20069;-91
2021/06/16 12:20:34;;;;;;;6.70;5.75;;;36.90;99.90;;;;;;5014031;28;20021;-91
2021/06/16 12:23:02;;;;;;;7.20;5.57;;;38.20;99.90;;;;;;5029955;28;20080;-91
2021/06/16 12:25:34;;;;;;;7.25;5.50;;;38.90;99.90;;;;;;5032001;28;20049;-91
2021/06/16 12:28:01;;;;;;;6.07;5.35;;;39.10;99.90;;;;;;5033387;28;20037;-90
2021/06/16 12:30:31;;;;;;;6.90;6.20;;;40.30;99.90;;;;;;5035351;28;20109;-91
2021/06/16 12:33:24;;;;;;;6.90;5.85;;;40.00;99.90;;;;;;5017480;28;20479;-91
2021/06/16 12:35:56;;;;;;;6.13;5.63;;;40.40;99.90;;;;;;5019824;28;20104;-91
2021/06/16 12:38:43;;;;;;;5.80;5.32;;;40.60;99.90;;;;;;5035229;28;20116;-91
2021/06/16 12:41:33;;;;;;;6.28;5.68;;;40.00;99.90;;;;;;5035559;28;20029;-91
2021/06/16 12:44:16;;;;;;;7.65;5.85;;;40.00;99.90;;;;;;5033321;28;20038;-91
2021/06/16 12:46:59;;;;;;;6.65;5.82;;;40.50;99.90;;;;;;5035152;28;20033;-91
2021/06/16 12:49:32;;;;;;;6.72;5.75;;;40.80;99.90;;;;;;5034075;28;20033;-91
2021/06/16 12:52:02;;;;;;;6.20;5.65;;;41.40;99.90;;;;;;5034817;28;20497;-91
2021/06/16 12:54:47;;;;;;;7.30;5.10;;;41.10;99.90;;;;;;5034627;28;20032;-91
2021/06/16 12:57:18;;;;;;;9.10;5.97;;;40.50;99.90;;;;;;5033835;28;20049;-91